MSC Divina — 3FFA5 — position and weather

sailwx.info

Track history (hours):
 
Tides and Currents Weather Stations Pressure Air Temp Water Temp Dewpoint Dewpoint Depression Visibility Wind Speed Wind Dir Waves Ship Positions

MSC Divina

Last reported at 2017-Dec-10 12:00 UTC. Time now 2017-Dec-11 13:31 UTC.
Position N 25°12' W 075°54'.

Length 333 m; draft 8.6 m.

Type: Passenger vessel. MMSI: 373178000.

Wind from 320 at 30 knots

Barometer 1022.7 mb
Air temperature 22.0 ° C
Visibility: greater than 5.4 NM
Dewpoint 15.8 ° C
Water temperature 27.0 ° C

Date/timePositionNaut miles runAvg speedWind from/ knotsBaromVisibWave heightAir tempDewpointWater temp
2017-Dec-10 12:00N 25°12' W 075°54'20521.0 320 / 301022.7 5.4 22.015.827.0
2017-Dec-10 02:13N 25°60' W 079°35'420.1
2017-Dec-10 02:00N 25°58' W 079°40'1020.3
2017-Dec-10 01:30N 25°53' W 079°50'1020.1
2017-Dec-10 01:00N 25°48' W 079°59'714.0
2017-Dec-10 00:31N 25°45' W 080°07'4 7.4
2017-Dec-10 00:00N 25°47' W 080°10'0 0.0
2017-Dec-09 23:25N 25°47' W 080°10'0 0.0
2017-Dec-09 22:58N 25°47' W 080°10'0 0.0
2017-Dec-09 22:28N 25°47' W 080°10'0 0.0
2017-Dec-09 21:58N 25°47' W 080°10'0 0.0
2017-Dec-09 21:28N 25°47' W 080°10'0 0.0
2017-Dec-09 20:58N 25°47' W 080°10'0 0.0
2017-Dec-09 20:28N 25°47' W 080°10'0 0.0
2017-Dec-09 19:58N 25°47' W 080°10'0 0.0
2017-Dec-09 19:28N 25°47' W 080°10'0 0.0
2017-Dec-09 18:58N 25°47' W 080°10'0 0.0
2017-Dec-09 18:28N 25°47' W 080°10'0 0.0
2017-Dec-09 17:58N 25°47' W 080°10'0 0.0
2017-Dec-09 17:28N 25°47' W 080°10'0 0.0
2017-Dec-09 17:00N 25°47' W 080°10'0 0.0
2017-Dec-09 16:30N 25°47' W 080°10'0 0.0
2017-Dec-09 16:00N 25°47' W 080°10'0 0.0
2017-Dec-09 15:30N 25°47' W 080°10'0 0.0
2017-Dec-09 15:00N 25°47' W 080°10'0 0.0
2017-Dec-09 14:27N 25°47' W 080°10'0 0.0
2017-Dec-09 14:00N 25°47' W 080°10'0 0.0
2017-Dec-09 13:30N 25°47' W 080°10'0 0.0
2017-Dec-09 12:57N 25°47' W 080°10'0 0.0
2017-Dec-09 12:27N 25°47' W 080°10'0 0.0
2017-Dec-09 12:00N 25°47' W 080°10'0 0.0
2017-Dec-09 11:23N 25°47' W 080°10'0 0.0
2017-Dec-09 10:59N 25°47' W 080°10'1 1.3
2017-Dec-09 10:30N 25°47' W 080°11'3 6.1
2017-Dec-09 10:00N 25°46' W 080°08'611.5
2017-Dec-09 09:31N 25°46' W 080°02'815.9
2017-Dec-09 09:00N 25°50' W 079°54'815.5
2017-Dec-09 08:31N 25°53' W 079°46'713.4
2017-Dec-09 08:00N 25°56' W 079°39'612.3
2017-Dec-09 07:30N 25°59' W 079°33'612.7
2017-Dec-09 07:00N 26°02' W 079°27'612.9
2017-Dec-09 06:30N 26°04' W 079°20'127 6.9
2017-Dec-08 12:00N 25°24' W 077°06'12514.5 150 / 201017.6 5.4 26.023.227.0
2017-Dec-08 03:19N 25°46' W 079°23'619.8
2017-Dec-08 02:59N 25°40' W 079°25'1019.7
2017-Dec-08 02:29N 25°30' W 079°29'15818.7
2017-Dec-07 18:00N 23°42' W 081°36'12120.2 170 / 81018.1 5.4 26.023.227.0
2017-Dec-07 12:00N 23°06' W 083°42'22818.7 190 / 91020.1 5.4 27.022.827.0
2017-Dec-06 23:47N 20°41' W 086°52'621.1
2017-Dec-06 23:30N 20°36' W 086°55'611.5
2017-Dec-06 23:00N 20°31' W 086°57'0 0.0
2017-Dec-06 22:30N 20°31' W 086°57'0 0.0
2017-Dec-06 22:00N 20°31' W 086°57'0 0.0
2017-Dec-06 21:30N 20°31' W 086°57'0 0.0
2017-Dec-06 21:00N 20°31' W 086°57'32 3.5
2017-Dec-06 12:00N 20°36' W 086°24'30012.5 080 / 131021.1 5.4 27.022.828.0
2017-Dec-05 12:00N 19°12' W 081°18'264 5.5 070 / 201018.6 5.4 27.024.327.0
2017-Dec-03 12:00N 22°36' W 078°18'18919.6 040 / 301020.6 5.4 28.023.927.0
2017-Dec-03 02:21N 25°28' W 079°44'616.7
2017-Dec-03 02:00N 25°32' W 079°48'816.6
2017-Dec-03 01:30N 25°38' W 079°55'816.7
2017-Dec-03 01:00N 25°43' W 080°02'611.4
2017-Dec-03 00:30N 25°46' W 080°08'3 5.8
2017-Dec-03 00:00N 25°47' W 080°10'0 0.0
2017-Dec-02 23:30N 25°47' W 080°10'0 0.0
2017-Dec-02 22:54N 25°47' W 080°10'0 0.0
2017-Dec-02 22:27N 25°47' W 080°10'0 0.0
2017-Dec-02 22:00N 25°47' W 080°10'0 0.0
2017-Dec-02 21:30N 25°47' W 080°10'0 0.0
2017-Dec-02 20:57N 25°47' W 080°10'0 0.0
2017-Dec-02 20:30N 25°47' W 080°10'0 0.0
2017-Dec-02 19:57N 25°47' W 080°10'0 0.0
2017-Dec-02 19:27N 25°47' W 080°10'0 0.0
2017-Dec-02 19:00N 25°47' W 080°10'0 0.0
2017-Dec-02 18:30N 25°47' W 080°10'0 0.0
2017-Dec-02 18:00N 25°47' W 080°10'0 0.0
2017-Dec-02 17:30N 25°47' W 080°10'0 0.0
2017-Dec-02 17:00N 25°47' W 080°10'0 0.0
2017-Dec-02 16:31N 25°47' W 080°10'0 0.0
2017-Dec-02 15:59N 25°47' W 080°10'0 0.0
2017-Dec-02 15:29N 25°47' W 080°10'0 0.0
2017-Dec-02 15:00N 25°47' W 080°10'0 0.0
2017-Dec-02 14:28N 25°47' W 080°10'0 0.0
2017-Dec-02 13:58N 25°47' W 080°10'0 0.0
2017-Dec-02 13:28N 25°47' W 080°10'0 0.0
2017-Dec-02 12:58N 25°47' W 080°10'0 0.0
2017-Dec-02 12:28N 25°47' W 080°10'0 0.0
2017-Dec-02 11:58N 25°47' W 080°10'0 0.0
2017-Dec-02 11:28N 25°47' W 080°10'0 0.0
2017-Dec-02 10:58N 25°47' W 080°10'0 1.1
2017-Dec-02 10:31N 25°47' W 080°11'1 2.9
2017-Dec-02 10:00N 25°46' W 080°09'4 9.0
2017-Dec-02 09:31N 25°46' W 080°04'510.8
2017-Dec-02 09:01N 25°48' W 079°59'713.7
2017-Dec-02 08:30N 25°51' W 079°52'713.7
2017-Dec-02 08:00N 25°54' W 079°45'713.9
2017-Dec-02 07:30N 25°58' W 079°38'914.0
2017-Dec-02 06:53N 26°02' W 079°30'140 7.4
2017-Dec-01 12:00N 25°24' W 077°00'36120.0 040 / 151020.4 5.4 27.025.727.0
2017-Nov-30 18:00N 22°24' W 071°18'12320.6 290 / 51014.6 5.4 28.022.427.0
2017-Nov-30 12:00N 21°12' W 069°30'   190 / 161016.6 5.4 27.022.828.0
Track history (hours):
 
Tides and Currents Weather Stations Pressure Air Temp Water Temp Dewpoint Dewpoint Depression Visibility Wind Speed Wind Dir Waves Ship Positions

MSC Divina

Last reported at 2017-Dec-10 12:00 UTC. Time now 2017-Dec-11 13:31 UTC.
Position N 25°12' W 075°54'.

Length 333 m; draft 8.6 m.

Type: Passenger vessel. MMSI: 373178000.

Wind from 320 at 30 knots

Barometer 1022.7 mb
Air temperature 22.0 ° C
Visibility: greater than 5.4 NM
Dewpoint 15.8 ° C
Water temperature 27.0 ° C

Date/timePositionNaut miles runAvg speedWind from/ knotsBaromVisibWave heightAir tempDewpointWater temp
2017-Dec-10 12:00N 25°12' W 075°54'20521.0 320 / 301022.7 5.4 22.015.827.0
2017-Dec-10 02:13N 25°60' W 079°35'420.1
2017-Dec-10 02:00N 25°58' W 079°40'1020.3
2017-Dec-10 01:30N 25°53' W 079°50'1020.1
2017-Dec-10 01:00N 25°48' W 079°59'714.0
2017-Dec-10 00:31N 25°45' W 080°07'4 7.4
2017-Dec-10 00:00N 25°47' W 080°10'0 0.0
2017-Dec-09 23:25N 25°47' W 080°10'0 0.0
2017-Dec-09 22:58N 25°47' W 080°10'0 0.0
2017-Dec-09 22:28N 25°47' W 080°10'0 0.0
2017-Dec-09 21:58N 25°47' W 080°10'0 0.0
2017-Dec-09 21:28N 25°47' W 080°10'0 0.0
2017-Dec-09 20:58N 25°47' W 080°10'0 0.0
2017-Dec-09 20:28N 25°47' W 080°10'0 0.0
2017-Dec-09 19:58N 25°47' W 080°10'0 0.0
2017-Dec-09 19:28N 25°47' W 080°10'0 0.0
2017-Dec-09 18:58N 25°47' W 080°10'0 0.0
2017-Dec-09 18:28N 25°47' W 080°10'0 0.0
2017-Dec-09 17:58N 25°47' W 080°10'0 0.0
2017-Dec-09 17:28N 25°47' W 080°10'0 0.0
2017-Dec-09 17:00N 25°47' W 080°10'0 0.0
2017-Dec-09 16:30N 25°47' W 080°10'0 0.0
2017-Dec-09 16:00N 25°47' W 080°10'0 0.0
2017-Dec-09 15:30N 25°47' W 080°10'0 0.0
2017-Dec-09 15:00N 25°47' W 080°10'0 0.0
2017-Dec-09 14:27N 25°47' W 080°10'0 0.0
2017-Dec-09 14:00N 25°47' W 080°10'0 0.0
2017-Dec-09 13:30N 25°47' W 080°10'0 0.0
2017-Dec-09 12:57N 25°47' W 080°10'0 0.0
2017-Dec-09 12:27N 25°47' W 080°10'0 0.0
2017-Dec-09 12:00N 25°47' W 080°10'0 0.0
2017-Dec-09 11:23N 25°47' W 080°10'0 0.0
2017-Dec-09 10:59N 25°47' W 080°10'1 1.3
2017-Dec-09 10:30N 25°47' W 080°11'3 6.1
2017-Dec-09 10:00N 25°46' W 080°08'611.5
2017-Dec-09 09:31N 25°46' W 080°02'815.9
2017-Dec-09 09:00N 25°50' W 079°54'815.5
2017-Dec-09 08:31N 25°53' W 079°46'713.4
2017-Dec-09 08:00N 25°56' W 079°39'612.3
2017-Dec-09 07:30N 25°59' W 079°33'612.7
2017-Dec-09 07:00N 26°02' W 079°27'612.9
2017-Dec-09 06:30N 26°04' W 079°20'127 6.9
2017-Dec-08 12:00N 25°24' W 077°06'12514.5 150 / 201017.6 5.4 26.023.227.0
2017-Dec-08 03:19N 25°46' W 079°23'619.8
2017-Dec-08 02:59N 25°40' W 079°25'1019.7
2017-Dec-08 02:29N 25°30' W 079°29'15818.7
2017-Dec-07 18:00N 23°42' W 081°36'12120.2 170 / 81018.1 5.4 26.023.227.0
2017-Dec-07 12:00N 23°06' W 083°42'22818.7 190 / 91020.1 5.4 27.022.827.0
2017-Dec-06 23:47N 20°41' W 086°52'621.1
2017-Dec-06 23:30N 20°36' W 086°55'611.5
2017-Dec-06 23:00N 20°31' W 086°57'0 0.0
2017-Dec-06 22:30N 20°31' W 086°57'0 0.0
2017-Dec-06 22:00N 20°31' W 086°57'0 0.0
2017-Dec-06 21:30N 20°31' W 086°57'0 0.0
2017-Dec-06 21:00N 20°31' W 086°57'32 3.5
2017-Dec-06 12:00N 20°36' W 086°24'30012.5 080 / 131021.1 5.4 27.022.828.0
2017-Dec-05 12:00N 19°12' W 081°18'264 5.5 070 / 201018.6 5.4 27.024.327.0
2017-Dec-03 12:00N 22°36' W 078°18'18919.6 040 / 301020.6 5.4 28.023.927.0
2017-Dec-03 02:21N 25°28' W 079°44'616.7
2017-Dec-03 02:00N 25°32' W 079°48'816.6
2017-Dec-03 01:30N 25°38' W 079°55'816.7
2017-Dec-03 01:00N 25°43' W 080°02'611.4
2017-Dec-03 00:30N 25°46' W 080°08'3 5.8
2017-Dec-03 00:00N 25°47' W 080°10'0 0.0
2017-Dec-02 23:30N 25°47' W 080°10'0 0.0
2017-Dec-02 22:54N 25°47' W 080°10'0 0.0
2017-Dec-02 22:27N 25°47' W 080°10'0 0.0
2017-Dec-02 22:00N 25°47' W 080°10'0 0.0
2017-Dec-02 21:30N 25°47' W 080°10'0 0.0
2017-Dec-02 20:57N 25°47' W 080°10'0 0.0
2017-Dec-02 20:30N 25°47' W 080°10'0 0.0
2017-Dec-02 19:57N 25°47' W 080°10'0 0.0
2017-Dec-02 19:27N 25°47' W 080°10'0 0.0
2017-Dec-02 19:00N 25°47' W 080°10'0 0.0
2017-Dec-02 18:30N 25°47' W 080°10'0 0.0
2017-Dec-02 18:00N 25°47' W 080°10'0 0.0
2017-Dec-02 17:30N 25°47' W 080°10'0 0.0
2017-Dec-02 17:00N 25°47' W 080°10'0 0.0
2017-Dec-02 16:31N 25°47' W 080°10'0 0.0
2017-Dec-02 15:59N 25°47' W 080°10'0 0.0
2017-Dec-02 15:29N 25°47' W 080°10'0 0.0
2017-Dec-02 15:00N 25°47' W 080°10'0 0.0
2017-Dec-02 14:28N 25°47' W 080°10'0 0.0
2017-Dec-02 13:58N 25°47' W 080°10'0 0.0
2017-Dec-02 13:28N 25°47' W 080°10'0 0.0
2017-Dec-02 12:58N 25°47' W 080°10'0 0.0
2017-Dec-02 12:28N 25°47' W 080°10'0 0.0
2017-Dec-02 11:58N 25°47' W 080°10'0 0.0
2017-Dec-02 11:28N 25°47' W 080°10'0 0.0
2017-Dec-02 10:58N 25°47' W 080°10'0 1.1
2017-Dec-02 10:31N 25°47' W 080°11'1 2.9
2017-Dec-02 10:00N 25°46' W 080°09'4 9.0
2017-Dec-02 09:31N 25°46' W 080°04'510.8
2017-Dec-02 09:01N 25°48' W 079°59'713.7
2017-Dec-02 08:30N 25°51' W 079°52'713.7
2017-Dec-02 08:00N 25°54' W 079°45'713.9
2017-Dec-02 07:30N 25°58' W 079°38'914.0
2017-Dec-02 06:53N 26°02' W 079°30'140 7.4
2017-Dec-01 12:00N 25°24' W 077°00'36120.0 040 / 151020.4 5.4 27.025.727.0
2017-Nov-30 18:00N 22°24' W 071°18'12320.6 290 / 51014.6 5.4 28.022.427.0
2017-Nov-30 12:00N 21°12' W 069°30'   190 / 161016.6 5.4 27.022.828.0

Dump ship's entire track history